LPPT/LIS METAR and TAF weather

Enter ICAO airport designator
Station Type Date Time Source
LPPT METAR 2021/04/18 02:30 UTC NOAA

LPPT 180230Z 30004KT CAVOK 13/11 Q1018


Station Type Date Time Source
LPPT Decoded METAR 2021/04/18 02:30 UTC NOAA

Lisboa / Portela, Portugal (LPPT) 38-46N 009-08W 123M
Apr 17, 2021 - 10:30 PM EDT / 2021.04.18 0230 UTC
Wind: from the WNW (300 degrees) at 5 MPH (4 KT):0
Visibility: greater than 7 mile(s):0
Temperature: 55 F (13 C)
Dew Point: 51 F (11 C)
Relative Humidity: 87%
Pressure (altimeter): 30.06 in. Hg (1018 hPa)
ob: LPPT 180230Z 30004KT CAVOK 13/11 Q1018
cycle: 2

Station Type Date Time Source
LPPT TAF 2021/04/17 18:18 UTC NOAA

TAF LPPT 171700Z 1718/1824 34012KT CAVOK
BECMG 1803/1806 06007KT
BECMG 1810/1812 VRB05KT
BECMG 1814/1816 25005KT
BECMG 1818/1821 32010KT

Example: see airport list